createdAt,value
2022-09-09T00:02:05.856Z,14.50
2022-09-09T00:04:35.724Z,14.50
2022-09-09T00:07:08.250Z,14.50
2022-09-09T00:09:47.334Z,14.60
2022-09-09T00:12:19.104Z,14.60
2022-09-09T00:14:53.899Z,14.70
2022-09-09T00:17:37.303Z,14.60
2022-09-09T00:20:13.605Z,14.60
2022-09-09T00:22:47.994Z,14.60
2022-09-09T00:25:25.647Z,14.60
2022-09-09T00:27:53.661Z,14.60
2022-09-09T00:30:24.599Z,14.60
2022-09-09T00:32:59.179Z,14.60
2022-09-09T00:35:32.183Z,14.50
2022-09-09T00:38:04.859Z,14.50
2022-09-09T00:40:37.492Z,14.40
2022-09-09T00:43:28.187Z,14.40
2022-09-09T00:46:38.407Z,14.40
2022-09-09T00:49:17.380Z,14.40
2022-09-09T00:51:54.146Z,14.40
2022-09-09T00:54:33.697Z,14.30
2022-09-09T00:57:15.826Z,14.30
2022-09-09T00:59:49.945Z,14.30
2022-09-09T01:02:29.062Z,14.20
2022-09-09T01:05:00.944Z,14.20
2022-09-09T01:07:29.448Z,14.20
2022-09-09T01:09:59.460Z,14.20
2022-09-09T01:12:36.758Z,14.20
2022-09-09T01:15:12.737Z,14.30
2022-09-09T01:17:55.504Z,14.30
2022-09-09T01:20:27.561Z,14.30
2022-09-09T01:23:17.229Z,14.30
2022-09-09T01:26:21.455Z,14.30
2022-09-09T01:28:53.755Z,14.30
2022-09-09T01:31:31.801Z,14.30
2022-09-09T01:33:59.948Z,14.30
2022-09-09T01:36:36.463Z,14.30
2022-09-09T01:39:04.948Z,14.30
2022-09-09T01:41:35.991Z,14.20
2022-09-09T01:44:07.797Z,14.30
2022-09-09T01:46:37.507Z,14.20
2022-09-09T01:49:09.438Z,14.20
2022-09-09T01:51:38.075Z,14.20
2022-09-09T01:54:09.603Z,14.20
2022-09-09T01:56:49.110Z,14.30
2022-09-09T01:59:36.625Z,14.20
2022-09-09T02:02:12.525Z,14.30
2022-09-09T02:04:49.035Z,14.30
2022-09-09T02:07:36.158Z,14.20
2022-09-09T02:10:13.278Z,14.30
2022-09-09T02:12:55.082Z,14.30
2022-09-09T02:15:27.529Z,14.30
2022-09-09T02:18:00.030Z,14.30
2022-09-09T02:20:33.416Z,14.30
2022-09-09T02:23:03.981Z,14.30
2022-09-09T02:25:32.342Z,14.30
2022-09-09T02:28:13.703Z,14.30
2022-09-09T02:30:44.191Z,14.30
2022-09-09T02:33:14.827Z,14.30
2022-09-09T02:35:48.731Z,14.40
2022-09-09T02:38:23.493Z,14.40
2022-09-09T02:41:02.814Z,14.40
2022-09-09T02:43:35.982Z,14.40
2022-09-09T02:46:20.300Z,14.40
2022-09-09T02:48:57.269Z,14.40
2022-09-09T02:51:37.666Z,14.40
2022-09-09T02:54:15.167Z,14.50
2022-09-09T02:56:50.935Z,14.50
2022-09-09T02:59:22.216Z,14.50
2022-09-09T03:01:50.255Z,14.50
2022-09-09T03:04:18.672Z,14.60
2022-09-09T03:06:47.406Z,14.60
2022-09-09T03:09:20.460Z,14.60
2022-09-09T03:11:48.517Z,14.60
2022-09-09T03:14:18.440Z,14.60
2022-09-09T03:16:48.328Z,14.60
2022-09-09T03:19:16.442Z,14.50
2022-09-09T03:21:44.707Z,14.60
2022-09-09T03:24:12.753Z,14.50
2022-09-09T03:26:41.317Z,14.50
2022-09-09T03:29:14.256Z,14.50
2022-09-09T03:31:43.909Z,14.50
2022-09-09T03:34:14.577Z,14.40
2022-09-09T03:36:43.135Z,14.30
2022-09-09T03:39:11.628Z,14.30
2022-09-09T03:41:42.944Z,14.30
2022-09-09T03:44:11.444Z,14.30
2022-09-09T03:46:42.435Z,14.30
2022-09-09T03:49:11.280Z,14.30
2022-09-09T03:51:41.458Z,14.30
2022-09-09T03:54:11.496Z,14.40
2022-09-09T03:56:42.416Z,14.40
2022-09-09T03:59:12.759Z,14.30
2022-09-09T04:01:40.980Z,14.30
2022-09-09T04:04:09.908Z,14.40
2022-09-09T04:06:38.219Z,14.40
2022-09-09T04:09:07.713Z,14.40
2022-09-09T04:11:36.460Z,14.40
2022-09-09T04:14:06.897Z,14.40
2022-09-09T04:16:38.316Z,14.50
2022-09-09T04:19:07.617Z,14.50
2022-09-09T04:21:37.032Z,14.60
2022-09-09T04:24:05.448Z,14.60
2022-09-09T04:26:35.687Z,14.60
2022-09-09T04:29:04.126Z,14.70
2022-09-09T04:31:32.894Z,14.80
2022-09-09T04:34:03.304Z,14.90
2022-09-09T04:36:31.631Z,14.90
2022-09-09T04:39:02.559Z,14.90
2022-09-09T04:41:32.330Z,15.00
2022-09-09T04:44:04.885Z,15.10
2022-09-09T04:46:35.284Z,15.10
2022-09-09T04:49:03.441Z,15.20
2022-09-09T04:51:33.658Z,15.20
2022-09-09T04:54:01.963Z,15.30
2022-09-09T04:56:30.073Z,15.30
2022-09-09T04:59:03.770Z,15.30
2022-09-09T05:01:58.291Z,15.30
2022-09-09T05:04:26.387Z,15.40
2022-09-09T05:06:54.819Z,15.40
2022-09-09T05:09:22.999Z,15.40
2022-09-09T05:11:52.360Z,15.50
2022-09-09T05:14:30.430Z,15.50
2022-09-09T05:17:00.023Z,15.60
2022-09-09T05:19:29.266Z,15.60
2022-09-09T05:21:57.921Z,15.60
2022-09-09T05:24:34.330Z,15.60
2022-09-09T05:27:04.384Z,15.50
2022-09-09T05:29:35.005Z,15.50
2022-09-09T05:32:05.830Z,15.60
2022-09-09T05:34:34.550Z,15.50
2022-09-09T05:37:02.930Z,15.60
2022-09-09T05:39:31.692Z,15.60
2022-09-09T05:41:59.916Z,15.50
2022-09-09T05:44:30.287Z,15.60
2022-09-09T05:47:00.053Z,15.60
2022-09-09T05:49:28.813Z,15.60
2022-09-09T05:51:56.928Z,15.60
2022-09-09T05:54:25.612Z,15.60
2022-09-09T05:56:56.101Z,15.60
2022-09-09T05:59:25.196Z,15.70
2022-09-09T06:01:56.190Z,15.80
2022-09-09T06:04:35.226Z,15.80
2022-09-09T06:07:04.085Z,15.80
2022-09-09T06:09:32.400Z,15.80
2022-09-09T06:12:00.606Z,15.90
2022-09-09T06:14:28.963Z,15.90
2022-09-09T06:17:00.092Z,15.90
2022-09-09T06:19:32.509Z,16.00
2022-09-09T06:22:03.081Z,16.00
2022-09-09T06:24:34.131Z,16.10
2022-09-09T06:27:04.025Z,16.20
2022-09-09T06:29:35.652Z,16.30
2022-09-09T06:32:04.662Z,16.50
2022-09-09T06:34:32.946Z,16.60
2022-09-09T06:37:03.301Z,16.70
2022-09-09T06:39:37.709Z,16.80
2022-09-09T06:42:06.371Z,16.90
2022-09-09T06:44:53.488Z,17.10
2022-09-09T06:47:37.504Z,17.20
2022-09-09T06:50:08.387Z,17.30
2022-09-09T06:52:39.558Z,17.40
2022-09-09T06:55:11.074Z,17.30
2022-09-09T06:57:39.635Z,17.20
2022-09-09T07:00:15.232Z,17.10
2022-09-09T07:02:43.639Z,17.00
2022-09-09T07:05:14.024Z,17.00
2022-09-09T07:07:45.472Z,17.00
2022-09-09T07:10:15.776Z,17.10
2022-09-09T07:12:45.721Z,17.20
2022-09-09T07:15:15.051Z,17.20
2022-09-09T07:17:46.082Z,17.10
2022-09-09T07:20:15.554Z,17.10
2022-09-09T07:22:45.211Z,17.30
2022-09-09T07:25:13.840Z,17.50
2022-09-09T07:27:41.967Z,17.50
2022-09-09T07:30:17.568Z,17.50
2022-09-09T07:32:49.143Z,17.50
2022-09-09T07:35:17.440Z,17.60
2022-09-09T07:37:50.829Z,17.60
2022-09-09T07:40:21.753Z,17.60
2022-09-09T07:42:50.306Z,17.60
2022-09-09T07:45:18.763Z,17.70
2022-09-09T07:47:49.050Z,17.80
2022-09-09T07:50:17.926Z,18.00
2022-09-09T07:52:47.784Z,18.00
2022-09-09T07:55:16.600Z,17.90
2022-09-09T07:57:45.168Z,18.00
2022-09-09T08:00:15.833Z,17.90
2022-09-09T08:02:49.610Z,18.00
2022-09-09T08:05:18.101Z,18.20
2022-09-09T08:07:49.193Z,18.30
2022-09-09T08:10:17.451Z,18.50
2022-09-09T08:13:07.886Z,18.60
2022-09-09T08:15:36.028Z,18.70
2022-09-09T08:18:06.514Z,18.70
2022-09-09T08:20:37.756Z,18.90
2022-09-09T08:23:08.711Z,19.00
2022-09-09T08:25:37.279Z,19.00
2022-09-09T08:28:05.320Z,18.90
2022-09-09T08:30:33.750Z,18.70
2022-09-09T08:33:02.195Z,18.80
2022-09-09T08:35:33.869Z,18.70
2022-09-09T08:38:06.581Z,18.80
2022-09-09T08:40:46.535Z,19.00
2022-09-09T08:43:18.647Z,19.00
2022-09-09T08:45:57.107Z,18.90
2022-09-09T08:48:44.655Z,18.80
2022-09-09T08:51:16.080Z,18.70
2022-09-09T08:53:50.131Z,18.80
2022-09-09T08:56:24.639Z,18.70
2022-09-09T08:58:59.268Z,18.70
2022-09-09T09:01:47.435Z,18.60
2022-09-09T09:04:34.297Z,18.60
2022-09-09T09:07:11.603Z,18.40
2022-09-09T09:09:50.581Z,18.50
2022-09-09T09:12:24.225Z,18.50
2022-09-09T09:14:52.953Z,18.60
2022-09-09T09:17:23.125Z,18.80
2022-09-09T09:19:52.659Z,19.00
2022-09-09T09:22:23.256Z,19.30
2022-09-09T09:24:58.201Z,19.50
2022-09-09T09:27:34.321Z,19.20
2022-09-09T09:30:25.294Z,19.10
2022-09-09T09:33:00.580Z,19.10
2022-09-09T09:35:29.269Z,19.50
2022-09-09T09:40:58.987Z,20.20
2022-09-09T09:43:32.798Z,20.10
2022-09-09T09:46:17.260Z,20.10
2022-09-09T09:48:47.424Z,20.20
2022-09-09T09:51:20.304Z,20.20
2022-09-09T09:53:50.717Z,20.40
2022-09-09T09:56:28.183Z,20.10
2022-09-09T09:58:59.640Z,19.80
2022-09-09T10:01:37.367Z,19.70
2022-09-09T10:04:19.797Z,19.80
2022-09-09T10:06:48.788Z,19.90
2022-09-09T10:09:25.019Z,19.70
2022-09-09T10:12:01.301Z,19.40
2022-09-09T10:14:38.195Z,19.30
2022-09-09T10:17:20.620Z,19.20
2022-09-09T10:20:01.749Z,19.20
2022-09-09T10:22:34.888Z,19.10
2022-09-09T10:25:37.804Z,19.40
2022-09-09T10:28:28.859Z,19.50
2022-09-09T10:31:13.337Z,19.80
2022-09-09T10:33:52.624Z,20.20
2022-09-09T10:36:24.560Z,20.20
2022-09-09T10:39:00.377Z,20.10
2022-09-09T10:41:42.615Z,19.80
2022-09-09T10:44:26.630Z,19.70
2022-09-09T10:47:28.202Z,19.40
2022-09-09T10:50:28.180Z,19.50
2022-09-09T10:53:11.305Z,19.40
2022-09-09T10:55:44.890Z,19.70
2022-09-09T10:58:19.857Z,20.00
2022-09-09T11:00:53.806Z,20.10
2022-09-09T11:03:30.684Z,20.00
2022-09-09T11:06:02.491Z,20.00
2022-09-09T11:08:31.904Z,20.10
2022-09-09T11:11:04.550Z,20.20
2022-09-09T11:13:42.125Z,20.30
2022-09-09T11:16:24.141Z,20.30
2022-09-09T11:19:00.720Z,20.20
2022-09-09T11:21:33.869Z,20.20
2022-09-09T11:24:06.032Z,20.20
2022-09-09T11:26:40.016Z,21.10
2022-09-09T11:29:35.474Z,21.20
2022-09-09T11:32:18.162Z,21.30
2022-09-09T11:34:57.546Z,21.90
2022-09-09T11:37:52.083Z,21.10
2022-09-09T11:40:24.678Z,20.60
2022-09-09T11:43:04.894Z,20.30
2022-09-09T11:45:37.272Z,20.10
2022-09-09T11:48:06.891Z,20.20
2022-09-09T11:50:41.164Z,20.90
2022-09-09T11:53:24.599Z,21.60
2022-09-09T11:56:14.399Z,21.00
2022-09-09T11:58:56.095Z,20.50
2022-09-09T12:01:38.263Z,20.00
2022-09-09T12:04:34.205Z,19.80
2022-09-09T12:07:07.117Z,19.30
2022-09-09T12:09:48.718Z,18.80
2022-09-09T12:12:32.725Z,18.60
2022-09-09T12:15:21.941Z,18.60
2022-09-09T12:17:52.958Z,18.50
2022-09-09T12:20:23.587Z,18.60
2022-09-09T12:23:17.134Z,18.70
2022-09-09T12:25:59.321Z,18.70
2022-09-09T12:28:38.559Z,18.80
2022-09-09T12:31:14.239Z,18.60
2022-09-09T12:33:44.239Z,18.10
2022-09-09T12:36:15.497Z,17.70
2022-09-09T12:38:45.699Z,17.60
2022-09-09T12:41:25.583Z,17.80
2022-09-09T12:44:06.804Z,17.90
2022-09-09T12:46:38.305Z,18.00
2022-09-09T12:49:07.494Z,17.90
2022-09-09T12:51:36.210Z,18.10
2022-09-09T12:54:06.329Z,18.70
2022-09-09T12:56:36.304Z,18.80
2022-09-09T12:59:04.466Z,18.60
2022-09-09T13:01:34.664Z,18.70
2022-09-09T13:04:03.252Z,18.80
2022-09-09T13:06:33.433Z,19.40
2022-09-09T13:09:03.105Z,19.90
2022-09-09T13:11:39.265Z,19.40
2022-09-09T13:14:09.200Z,19.60
2022-09-09T13:16:42.984Z,20.20
2022-09-09T13:19:16.337Z,20.80
2022-09-09T13:21:44.823Z,21.00
2022-09-09T13:24:30.324Z,20.80
2022-09-09T13:27:02.939Z,20.50
2022-09-09T13:29:32.544Z,20.30
2022-09-09T13:32:08.929Z,20.20
2022-09-09T13:34:38.137Z,20.40
2022-09-09T13:37:08.707Z,20.50
2022-09-09T13:39:38.921Z,20.20
2022-09-09T13:42:27.584Z,20.10
2022-09-09T13:44:57.311Z,19.80
2022-09-09T13:47:32.471Z,19.80
2022-09-09T13:50:00.575Z,20.10
2022-09-09T13:52:33.906Z,20.10
2022-09-09T13:55:02.043Z,20.10
2022-09-09T13:57:31.777Z,20.10
2022-09-09T14:00:06.962Z,19.60
2022-09-09T14:02:35.593Z,19.40
2022-09-09T14:05:04.040Z,19.30
2022-09-09T14:07:33.019Z,19.00
2022-09-09T14:10:01.145Z,17.80
2022-09-09T14:12:32.479Z,16.50
2022-09-09T14:15:02.047Z,16.20
2022-09-09T14:17:31.818Z,15.90
2022-09-09T14:20:00.264Z,15.70
2022-09-09T14:22:29.502Z,15.50
2022-09-09T14:24:58.571Z,15.50
2022-09-09T14:27:27.435Z,15.40
2022-09-09T14:29:57.411Z,15.40
2022-09-09T14:32:25.645Z,15.40
2022-09-09T14:34:53.716Z,15.40
2022-09-09T14:37:22.021Z,15.40
2022-09-09T14:39:51.485Z,15.40
2022-09-09T14:42:19.939Z,15.40
2022-09-09T14:44:48.777Z,15.40
2022-09-09T14:47:18.319Z,15.40
2022-09-09T14:49:47.367Z,15.40
2022-09-09T14:52:15.540Z,15.60
2022-09-09T14:54:43.865Z,15.60
2022-09-09T14:57:11.964Z,15.60
2022-09-09T14:59:39.995Z,15.70
2022-09-09T15:02:10.087Z,15.80
2022-09-09T15:04:39.696Z,16.00
2022-09-09T15:07:09.150Z,16.00
2022-09-09T15:09:38.422Z,16.20
2022-09-09T15:12:06.683Z,16.40
2022-09-09T15:14:36.112Z,16.50
2022-09-09T15:17:04.152Z,16.80
2022-09-09T15:19:33.392Z,17.10
2022-09-09T15:22:03.019Z,17.30
2022-09-09T15:24:31.119Z,17.30
2022-09-09T15:26:59.331Z,17.30
2022-09-09T15:29:27.716Z,17.50
2022-09-09T15:31:56.618Z,17.60
2022-09-09T15:34:25.017Z,17.60
2022-09-09T15:36:53.083Z,17.60
2022-09-09T15:39:22.576Z,17.70
2022-09-09T15:41:50.913Z,17.80
2022-09-09T15:44:19.975Z,17.90
2022-09-09T15:46:51.005Z,18.00
2022-09-09T15:49:20.561Z,18.20
2022-09-09T15:51:52.574Z,18.50
2022-09-09T15:54:24.864Z,18.70
2022-09-09T15:56:56.029Z,18.80
2022-09-09T15:59:24.585Z,18.80
2022-09-09T16:01:53.171Z,18.80
2022-09-09T16:04:24.518Z,18.60
2022-09-09T16:06:53.256Z,18.70
2022-09-09T16:09:23.559Z,18.70
2022-09-09T16:11:52.954Z,18.60
2022-09-09T16:14:22.005Z,18.70
2022-09-09T16:16:50.349Z,18.80
2022-09-09T16:19:18.632Z,18.70
2022-09-09T16:21:49.086Z,18.60
2022-09-09T16:24:19.893Z,18.50
2022-09-09T16:26:51.968Z,18.40
2022-09-09T16:29:21.766Z,18.40
2022-09-09T16:31:51.162Z,18.50
2022-09-09T16:34:19.861Z,18.70
2022-09-09T16:36:49.374Z,18.70
2022-09-09T16:39:19.584Z,18.50
2022-09-09T16:41:51.026Z,18.40
2022-09-09T16:44:20.308Z,18.20
2022-09-09T16:46:49.988Z,18.10
2022-09-09T16:49:18.520Z,18.10
2022-09-09T16:51:48.765Z,17.90
2022-09-09T16:54:18.363Z,17.90
2022-09-09T16:56:50.077Z,17.90
2022-09-09T16:59:20.278Z,17.80
2022-09-09T17:01:51.814Z,17.80
2022-09-09T17:04:22.402Z,17.80
2022-09-09T17:06:52.125Z,17.80
2022-09-09T17:09:21.359Z,17.80
2022-09-09T17:11:53.240Z,17.80
2022-09-09T17:14:23.342Z,17.90
2022-09-09T17:16:51.968Z,17.80
2022-09-09T17:19:20.695Z,17.80
2022-09-09T17:22:15.066Z,17.80
2022-09-09T17:24:39.391Z,17.80
2022-09-09T17:27:09.893Z,17.80
2022-09-09T17:29:38.561Z,17.80
2022-09-09T17:32:08.083Z,17.80
2022-09-09T17:34:36.239Z,17.80
2022-09-09T17:37:06.910Z,17.80
2022-09-09T17:39:35.125Z,17.80
2022-09-09T17:42:03.568Z,17.80
2022-09-09T17:44:34.383Z,17.80
2022-09-09T17:47:04.867Z,17.80
2022-09-09T17:49:33.137Z,17.70
2022-09-09T17:52:01.404Z,17.70
2022-09-09T17:54:29.501Z,17.80
2022-09-09T17:56:59.647Z,17.80
2022-09-09T17:59:27.755Z,17.70
2022-09-09T18:01:57.954Z,17.70
2022-09-09T18:04:26.565Z,17.70
2022-09-09T18:06:55.599Z,17.70
2022-09-09T18:09:25.887Z,17.70
2022-09-09T18:11:56.273Z,17.60
2022-09-09T18:14:26.886Z,17.60
2022-09-09T18:16:56.627Z,17.60
2022-09-09T18:19:26.543Z,17.60
2022-09-09T18:21:57.475Z,17.50
2022-09-09T18:24:28.571Z,17.50
2022-09-09T18:26:56.755Z,17.50
2022-09-09T18:29:26.345Z,17.50
2022-09-09T18:31:57.219Z,17.40
2022-09-09T18:34:28.793Z,17.40
2022-09-09T18:36:57.496Z,17.40
2022-09-09T18:39:28.247Z,17.50
2022-09-09T18:41:58.935Z,17.30
2022-09-09T18:44:28.508Z,17.10
2022-09-09T18:46:58.696Z,17.00
2022-09-09T18:49:27.783Z,16.90
2022-09-09T18:51:56.465Z,16.80
2022-09-09T18:54:26.538Z,16.70
2022-09-09T18:56:55.295Z,16.60
2022-09-09T18:59:24.981Z,16.60
2022-09-09T19:01:54.326Z,16.60
2022-09-09T19:04:25.523Z,16.60
2022-09-09T19:06:58.252Z,16.40
2022-09-09T19:09:28.512Z,16.30
2022-09-09T19:11:56.991Z,16.30
2022-09-09T19:14:25.363Z,16.30
2022-09-09T19:16:53.992Z,16.30
2022-09-09T19:19:26.824Z,16.30
2022-09-09T19:21:57.945Z,16.30
2022-09-09T19:24:28.723Z,16.20
2022-09-09T19:27:00.215Z,16.20
2022-09-09T19:29:29.814Z,16.20
2022-09-09T19:34:50.353Z,16.20
2022-09-09T19:37:18.988Z,16.20
2022-09-09T19:39:47.636Z,16.30
2022-09-09T19:42:16.148Z,16.30
2022-09-09T19:44:44.487Z,16.30
2022-09-09T19:47:14.503Z,16.20
2022-09-09T19:49:46.356Z,16.20
2022-09-09T19:52:17.579Z,16.20
2022-09-09T19:54:46.685Z,16.20
2022-09-09T19:57:14.915Z,16.20
2022-09-09T19:59:42.963Z,16.10
2022-09-09T20:02:13.147Z,16.00
2022-09-09T20:04:41.268Z,15.90
2022-09-09T20:07:09.870Z,15.90
2022-09-09T20:09:39.576Z,15.90
2022-09-09T20:12:08.691Z,15.80
2022-09-09T20:14:39.643Z,15.70
2022-09-09T20:17:08.973Z,15.70
2022-09-09T20:19:37.027Z,15.70
2022-09-09T20:22:05.147Z,15.70
2022-09-09T20:24:33.337Z,15.60
2022-09-09T20:27:02.955Z,15.60
2022-09-09T20:29:31.143Z,15.60
2022-09-09T20:31:59.164Z,15.60
2022-09-09T20:34:28.106Z,15.60
2022-09-09T20:36:57.592Z,15.60
2022-09-09T20:39:26.423Z,15.50
2022-09-09T20:41:54.513Z,15.50
2022-09-09T20:44:25.242Z,15.50
2022-09-09T20:46:57.046Z,15.50
2022-09-09T20:49:25.660Z,15.50
2022-09-09T20:51:55.043Z,15.50
2022-09-09T20:54:25.117Z,15.50
2022-09-09T20:56:55.218Z,15.50
2022-09-09T20:59:26.452Z,15.60
2022-09-09T21:01:56.767Z,15.60
2022-09-09T21:04:26.158Z,15.60
2022-09-09T21:06:54.463Z,15.60
2022-09-09T21:09:24.470Z,15.70
2022-09-09T21:11:54.032Z,15.70
2022-09-09T21:14:22.325Z,15.70
2022-09-09T21:16:51.886Z,15.80
2022-09-09T21:19:20.026Z,15.70
2022-09-09T21:21:48.573Z,15.70
2022-09-09T21:24:17.026Z,15.70
2022-09-09T21:26:45.593Z,15.70
2022-09-09T21:29:14.111Z,15.60
2022-09-09T21:31:43.130Z,15.60
2022-09-09T21:34:15.536Z,15.60
2022-09-09T21:36:43.752Z,15.60
2022-09-09T21:39:11.859Z,15.60
2022-09-09T21:41:39.987Z,15.60
2022-09-09T21:44:09.160Z,15.60
2022-09-09T21:46:37.877Z,15.60
2022-09-09T21:49:05.950Z,15.60
2022-09-09T21:51:35.776Z,15.60
2022-09-09T21:54:03.991Z,15.60
2022-09-09T21:56:32.088Z,15.60
2022-09-09T21:59:03.727Z,15.50
2022-09-09T22:01:33.725Z,15.50
2022-09-09T22:04:02.033Z,15.50
2022-09-09T22:06:30.322Z,15.50
2022-09-09T22:09:01.694Z,15.50
2022-09-09T22:11:31.290Z,15.50
2022-09-09T22:13:59.465Z,15.50
2022-09-09T22:16:27.697Z,15.60
2022-09-09T22:18:57.990Z,15.60
2022-09-09T22:21:27.860Z,15.50
2022-09-09T22:23:57.274Z,15.60
2022-09-09T22:26:28.197Z,15.50
2022-09-09T22:28:57.397Z,15.60
2022-09-09T22:31:27.016Z,15.70
2022-09-09T22:33:55.608Z,15.60
2022-09-09T22:36:24.123Z,15.60
2022-09-09T22:38:52.648Z,15.60
2022-09-09T22:41:21.531Z,15.60
2022-09-09T22:43:50.951Z,15.60
2022-09-09T22:46:19.806Z,15.60
2022-09-09T22:48:48.167Z,15.50
2022-09-09T22:51:17.129Z,15.60
2022-09-09T22:53:46.599Z,15.50
2022-09-09T22:56:17.767Z,15.60
2022-09-09T22:58:47.170Z,15.60
2022-09-09T23:01:19.499Z,15.50
2022-09-09T23:03:49.165Z,15.50
2022-09-09T23:06:22.495Z,15.50
2022-09-09T23:08:53.492Z,15.50
2022-09-09T23:11:21.547Z,15.50
2022-09-09T23:13:51.988Z,15.60
2022-09-09T23:16:24.499Z,15.60
2022-09-09T23:18:53.516Z,15.50
2022-09-09T23:21:22.446Z,15.50
2022-09-09T23:23:54.196Z,15.50
2022-09-09T23:26:22.914Z,15.50
2022-09-09T23:28:58.345Z,15.50
2022-09-09T23:31:30.595Z,15.50
2022-09-09T23:33:59.679Z,15.40
2022-09-09T23:36:29.511Z,15.40
2022-09-09T23:38:58.539Z,15.40
2022-09-09T23:41:28.155Z,15.40
2022-09-09T23:43:56.356Z,15.40
2022-09-09T23:46:28.844Z,15.30
2022-09-09T23:48:57.455Z,15.40
2022-09-09T23:51:28.287Z,15.40
2022-09-09T23:53:58.524Z,15.30
2022-09-09T23:56:28.635Z,15.40
2022-09-09T23:58:57.200Z,15.40
